sensor_id;sensor_type;location;lat;lon;timestamp;temperature;humidity
35129;DHT22;21301;43.626;10.580;2022-11-12T00:00:48;11.70;99.90
35129;DHT22;21301;43.626;10.580;2022-11-12T00:03:32;11.50;99.90
35129;DHT22;21301;43.626;10.580;2022-11-12T00:06:17;11.50;99.90
35129;DHT22;21301;43.626;10.580;2022-11-12T00:09:01;11.50;99.90
35129;DHT22;21301;43.626;10.580;2022-11-12T00:11:45;11.50;99.90
35129;DHT22;21301;43.626;10.580;2022-11-12T00:14:29;11.50;99.90
35129;DHT22;21301;43.626;10.580;2022-11-12T00:17:13;11.40;99.90
35129;DHT22;21301;43.626;10.580;2022-11-12T00:19:57;11.40;99.90
35129;DHT22;21301;43.626;10.580;2022-11-12T00:22:41;11.40;99.90
35129;DHT22;21301;43.626;10.580;2022-11-12T00:25:26;11.30;99.90
35129;DHT22;21301;43.626;10.580;2022-11-12T00:28:11;11.30;99.90
35129;DHT22;21301;43.626;10.580;2022-11-12T00:30:55;11.20;99.90
35129;DHT22;21301;43.626;10.580;2022-11-12T00:33:41;11.30;99.90
35129;DHT22;21301;43.626;10.580;2022-11-12T00:36:25;11.20;99.90
35129;DHT22;21301;43.626;10.580;2022-11-12T00:39:10;11.30;99.90
35129;DHT22;21301;43.626;10.580;2022-11-12T00:41:54;11.40;99.90
35129;DHT22;21301;43.626;10.580;2022-11-12T00:44:39;11.40;99.90
35129;DHT22;21301;43.626;10.580;2022-11-12T00:47:23;11.50;99.90
35129;DHT22;21301;43.626;10.580;2022-11-12T00:50:07;11.50;99.90
35129;DHT22;21301;43.626;10.580;2022-11-12T00:52:52;11.50;99.90
35129;DHT22;21301;43.626;10.580;2022-11-12T00:55:37;11.40;99.90
35129;DHT22;21301;43.626;10.580;2022-11-12T00:58:21;11.50;99.90
35129;DHT22;21301;43.626;10.580;2022-11-12T01:01:12;11.40;99.90
35129;DHT22;21301;43.626;10.580;2022-11-12T01:03:58;11.30;99.90
35129;DHT22;21301;43.626;10.580;2022-11-12T01:06:42;11.30;99.90
35129;DHT22;21301;43.626;10.580;2022-11-12T01:09:26;11.40;99.90
35129;DHT22;21301;43.626;10.580;2022-11-12T01:12:29;11.30;99.90
35129;DHT22;21301;43.626;10.580;2022-11-12T01:15:14;11.30;99.90
35129;DHT22;21301;43.626;10.580;2022-11-12T01:17:58;11.20;99.90
35129;DHT22;21301;43.626;10.580;2022-11-12T01:20:42;11.20;99.90
35129;DHT22;21301;43.626;10.580;2022-11-12T01:23:26;11.40;99.90
35129;DHT22;21301;43.626;10.580;2022-11-12T01:26:13;11.50;99.90
35129;DHT22;21301;43.626;10.580;2022-11-12T01:28:58;11.50;99.90
35129;DHT22;21301;43.626;10.580;2022-11-12T01:31:42;11.50;99.90
35129;DHT22;21301;43.626;10.580;2022-11-12T01:34:26;11.60;99.90
35129;DHT22;21301;43.626;10.580;2022-11-12T01:37:09;11.60;99.90
35129;DHT22;21301;43.626;10.580;2022-11-12T01:39:54;11.60;99.90
35129;DHT22;21301;43.626;10.580;2022-11-12T01:42:38;11.60;99.90
35129;DHT22;21301;43.626;10.580;2022-11-12T01:45:22;11.60;99.90
35129;DHT22;21301;43.626;10.580;2022-11-12T01:48:11;11.60;99.90
35129;DHT22;21301;43.626;10.580;2022-11-12T01:51:04;11.70;99.90
35129;DHT22;21301;43.626;10.580;2022-11-12T01:53:53;11.70;99.90
35129;DHT22;21301;43.626;10.580;2022-11-12T01:56:38;11.70;99.90
35129;DHT22;21301;43.626;10.580;2022-11-12T01:59:29;11.70;99.90
35129;DHT22;21301;43.626;10.580;2022-11-12T02:02:16;11.80;99.90
35129;DHT22;21301;43.626;10.580;2022-11-12T02:05:02;11.70;99.90
35129;DHT22;21301;43.626;10.580;2022-11-12T02:07:48;11.70;99.90
35129;DHT22;21301;43.626;10.580;2022-11-12T02:10:34;11.60;99.90
35129;DHT22;21301;43.626;10.580;2022-11-12T02:13:18;11.60;99.90
35129;DHT22;21301;43.626;10.580;2022-11-12T02:16:22;11.60;99.90
35129;DHT22;21301;43.626;10.580;2022-11-12T02:19:10;11.60;99.90
35129;DHT22;21301;43.626;10.580;2022-11-12T02:21:54;11.70;99.90
35129;DHT22;21301;43.626;10.580;2022-11-12T02:24:38;11.60;99.90
35129;DHT22;21301;43.626;10.580;2022-11-12T02:27:23;11.50;99.90
35129;DHT22;21301;43.626;10.580;2022-11-12T02:30:07;11.40;99.90
35129;DHT22;21301;43.626;10.580;2022-11-12T02:32:52;11.20;99.90
35129;DHT22;21301;43.626;10.580;2022-11-12T02:35:36;11.10;99.90
35129;DHT22;21301;43.626;10.580;2022-11-12T02:38:21;10.90;99.90
35129;DHT22;21301;43.626;10.580;2022-11-12T02:41:05;10.80;99.90
35129;DHT22;21301;43.626;10.580;2022-11-12T02:43:49;10.70;99.90
35129;DHT22;21301;43.626;10.580;2022-11-12T02:46:33;10.70;99.90
35129;DHT22;21301;43.626;10.580;2022-11-12T02:49:17;10.70;99.90
35129;DHT22;21301;43.626;10.580;2022-11-12T02:52:02;10.60;99.90
35129;DHT22;21301;43.626;10.580;2022-11-12T02:54:46;10.40;99.90
35129;DHT22;21301;43.626;10.580;2022-11-12T02:57:30;10.40;99.90
35129;DHT22;21301;43.626;10.580;2022-11-12T03:00:14;10.30;99.90
35129;DHT22;21301;43.626;10.580;2022-11-12T03:02:58;10.20;99.90
35129;DHT22;21301;43.626;10.580;2022-11-12T03:05:44;10.20;99.90
35129;DHT22;21301;43.626;10.580;2022-11-12T03:08:29;10.20;99.90
35129;DHT22;21301;43.626;10.580;2022-11-12T03:11:15;10.20;99.90
35129;DHT22;21301;43.626;10.580;2022-11-12T03:14:00;10.20;99.90
35129;DHT22;21301;43.626;10.580;2022-11-12T03:16:45;10.20;99.90
35129;DHT22;21301;43.626;10.580;2022-11-12T03:19:29;10.10;99.90
35129;DHT22;21301;43.626;10.580;2022-11-12T03:22:13;10.20;99.90
35129;DHT22;21301;43.626;10.580;2022-11-12T03:24:58;10.20;99.90
35129;DHT22;21301;43.626;10.580;2022-11-12T03:27:42;10.30;99.90
35129;DHT22;21301;43.626;10.580;2022-11-12T03:30:28;10.30;99.90
35129;DHT22;21301;43.626;10.580;2022-11-12T03:33:14;10.30;99.90
35129;DHT22;21301;43.626;10.580;2022-11-12T03:35:58;10.40;99.90
35129;DHT22;21301;43.626;10.580;2022-11-12T03:38:43;10.50;99.90
35129;DHT22;21301;43.626;10.580;2022-11-12T03:41:27;10.40;99.90
35129;DHT22;21301;43.626;10.580;2022-11-12T03:44:11;10.50;99.90
35129;DHT22;21301;43.626;10.580;2022-11-12T03:46:55;10.40;99.90
35129;DHT22;21301;43.626;10.580;2022-11-12T03:49:39;10.40;99.90
35129;DHT22;21301;43.626;10.580;2022-11-12T03:52:23;10.50;99.90
35129;DHT22;21301;43.626;10.580;2022-11-12T03:55:08;10.40;99.90
35129;DHT22;21301;43.626;10.580;2022-11-12T03:57:53;10.30;99.90
35129;DHT22;21301;43.626;10.580;2022-11-12T04:04:04;10.30;99.90
35129;DHT22;21301;43.626;10.580;2022-11-12T04:06:48;10.10;99.90
35129;DHT22;21301;43.626;10.580;2022-11-12T04:09:51;10.10;99.90
35129;DHT22;21301;43.626;10.580;2022-11-12T04:12:35;10.00;99.90
35129;DHT22;21301;43.626;10.580;2022-11-12T04:15:38;9.90;99.90
35129;DHT22;21301;43.626;10.580;2022-11-12T04:18:23;10.00;99.90
35129;DHT22;21301;43.626;10.580;2022-11-12T04:24:41;9.90;99.90
35129;DHT22;21301;43.626;10.580;2022-11-12T04:27:44;9.80;99.90
35129;DHT22;21301;43.626;10.580;2022-11-12T04:30:28;9.80;99.90
35129;DHT22;21301;43.626;10.580;2022-11-12T04:33:13;9.70;99.90
35129;DHT22;21301;43.626;10.580;2022-11-12T04:35:57;9.70;99.90
35129;DHT22;21301;43.626;10.580;2022-11-12T04:38:42;9.70;99.90
35129;DHT22;21301;43.626;10.580;2022-11-12T04:41:26;9.70;99.90
35129;DHT22;21301;43.626;10.580;2022-11-12T04:44:30;9.70;99.90
35129;DHT22;21301;43.626;10.580;2022-11-12T04:47:35;9.70;99.90
35129;DHT22;21301;43.626;10.580;2022-11-12T04:50:20;9.70;99.90
35129;DHT22;21301;43.626;10.580;2022-11-12T04:53:05;9.60;99.90
35129;DHT22;21301;43.626;10.580;2022-11-12T04:55:50;9.60;99.90
35129;DHT22;21301;43.626;10.580;2022-11-12T04:58:35;9.60;99.90
35129;DHT22;21301;43.626;10.580;2022-11-12T05:01:20;9.60;99.90
35129;DHT22;21301;43.626;10.580;2022-11-12T05:04:05;9.60;99.90
35129;DHT22;21301;43.626;10.580;2022-11-12T05:06:49;9.70;99.90
35129;DHT22;21301;43.626;10.580;2022-11-12T05:09:37;9.80;99.90
35129;DHT22;21301;43.626;10.580;2022-11-12T05:12:21;9.90;99.90
35129;DHT22;21301;43.626;10.580;2022-11-12T05:15:06;10.00;99.90
35129;DHT22;21301;43.626;10.580;2022-11-12T05:17:51;10.10;99.90
35129;DHT22;21301;43.626;10.580;2022-11-12T05:20:36;10.30;99.90
35129;DHT22;21301;43.626;10.580;2022-11-12T05:23:20;10.50;99.90
35129;DHT22;21301;43.626;10.580;2022-11-12T05:26:05;10.40;99.90
35129;DHT22;21301;43.626;10.580;2022-11-12T05:28:49;9.90;99.90
35129;DHT22;21301;43.626;10.580;2022-11-12T05:31:33;10.20;99.90
35129;DHT22;21301;43.626;10.580;2022-11-12T05:34:18;10.30;99.90
35129;DHT22;21301;43.626;10.580;2022-11-12T05:37:04;10.40;99.90
35129;DHT22;21301;43.626;10.580;2022-11-12T05:39:49;10.60;99.90
35129;DHT22;21301;43.626;10.580;2022-11-12T05:42:33;10.70;99.90
35129;DHT22;21301;43.626;10.580;2022-11-12T05:45:17;10.80;99.90
35129;DHT22;21301;43.626;10.580;2022-11-12T05:48:01;10.70;99.90
35129;DHT22;21301;43.626;10.580;2022-11-12T05:50:49;10.90;99.90
35129;DHT22;21301;43.626;10.580;2022-11-12T05:53:33;10.90;99.90
35129;DHT22;21301;43.626;10.580;2022-11-12T05:56:17;10.70;99.90
35129;DHT22;21301;43.626;10.580;2022-11-12T05:59:03;10.50;99.90
35129;DHT22;21301;43.626;10.580;2022-11-12T06:01:49;10.30;99.90
35129;DHT22;21301;43.626;10.580;2022-11-12T06:04:33;10.20;99.90
35129;DHT22;21301;43.626;10.580;2022-11-12T06:07:18;10.20;99.90
35129;DHT22;21301;43.626;10.580;2022-11-12T06:10:02;10.30;99.90
35129;DHT22;21301;43.626;10.580;2022-11-12T06:12:46;10.20;99.90
35129;DHT22;21301;43.626;10.580;2022-11-12T06:15:31;10.20;99.90
35129;DHT22;21301;43.626;10.580;2022-11-12T06:18:15;10.20;99.90
35129;DHT22;21301;43.626;10.580;2022-11-12T06:21:04;10.30;99.90
35129;DHT22;21301;43.626;10.580;2022-11-12T06:24:08;10.30;99.90
35129;DHT22;21301;43.626;10.580;2022-11-12T06:26:52;10.50;99.90
35129;DHT22;21301;43.626;10.580;2022-11-12T06:29:36;10.40;99.90
35129;DHT22;21301;43.626;10.580;2022-11-12T06:32:22;10.40;99.90
35129;DHT22;21301;43.626;10.580;2022-11-12T06:35:07;10.30;99.90
35129;DHT22;21301;43.626;10.580;2022-11-12T06:37:51;10.30;99.90
35129;DHT22;21301;43.626;10.580;2022-11-12T06:40:36;10.20;99.90
35129;DHT22;21301;43.626;10.580;2022-11-12T06:43:20;10.00;99.90
35129;DHT22;21301;43.626;10.580;2022-11-12T06:46:05;10.00;99.90
35129;DHT22;21301;43.626;10.580;2022-11-12T06:48:50;10.00;99.90
35129;DHT22;21301;43.626;10.580;2022-11-12T06:51:34;10.00;99.90
35129;DHT22;21301;43.626;10.580;2022-11-12T06:54:18;9.80;99.90
35129;DHT22;21301;43.626;10.580;2022-11-12T06:57:03;9.90;99.90
35129;DHT22;21301;43.626;10.580;2022-11-12T06:59:47;10.00;99.90
35129;DHT22;21301;43.626;10.580;2022-11-12T07:02:31;10.10;99.90
35129;DHT22;21301;43.626;10.580;2022-11-12T07:05:15;10.10;99.90
35129;DHT22;21301;43.626;10.580;2022-11-12T07:07:59;10.10;99.90
35129;DHT22;21301;43.626;10.580;2022-11-12T07:10:43;10.20;99.90
35129;DHT22;21301;43.626;10.580;2022-11-12T07:13:32;10.40;99.90
35129;DHT22;21301;43.626;10.580;2022-11-12T07:16:16;10.40;99.90
35129;DHT22;21301;43.626;10.580;2022-11-12T07:19:02;10.50;99.90
35129;DHT22;21301;43.626;10.580;2022-11-12T07:21:46;10.50;99.90
35129;DHT22;21301;43.626;10.580;2022-11-12T07:24:30;10.50;99.90
35129;DHT22;21301;43.626;10.580;2022-11-12T07:27:14;10.60;99.90
35129;DHT22;21301;43.626;10.580;2022-11-12T07:29:58;10.60;99.90
35129;DHT22;21301;43.626;10.580;2022-11-12T07:32:42;11.90;99.90
35129;DHT22;21301;43.626;10.580;2022-11-12T07:35:27;13.40;99.90
35129;DHT22;21301;43.626;10.580;2022-11-12T07:38:11;13.70;99.90
35129;DHT22;21301;43.626;10.580;2022-11-12T07:41:22;14.00;99.90
35129;DHT22;21301;43.626;10.580;2022-11-12T07:44:06;14.40;99.90
35129;DHT22;21301;43.626;10.580;2022-11-12T07:46:51;14.60;99.90
35129;DHT22;21301;43.626;10.580;2022-11-12T07:49:35;14.60;99.90
35129;DHT22;21301;43.626;10.580;2022-11-12T07:52:19;13.90;99.90
35129;DHT22;21301;43.626;10.580;2022-11-12T07:55:03;14.00;99.90
35129;DHT22;21301;43.626;10.580;2022-11-12T07:57:47;14.10;99.90
35129;DHT22;21301;43.626;10.580;2022-11-12T08:00:31;14.60;99.90
35129;DHT22;21301;43.626;10.580;2022-11-12T08:03:16;14.70;99.90
35129;DHT22;21301;43.626;10.580;2022-11-12T08:06:07;15.20;99.90
35129;DHT22;21301;43.626;10.580;2022-11-12T08:08:55;15.40;99.90
35129;DHT22;21301;43.626;10.580;2022-11-12T08:11:40;15.30;99.90
35129;DHT22;21301;43.626;10.580;2022-11-12T08:14:25;15.70;99.90
35129;DHT22;21301;43.626;10.580;2022-11-12T08:17:09;16.00;99.90
35129;DHT22;21301;43.626;10.580;2022-11-12T08:19:53;16.20;99.90
35129;DHT22;21301;43.626;10.580;2022-11-12T08:22:38;16.30;99.90
35129;DHT22;21301;43.626;10.580;2022-11-12T08:25:22;16.30;99.90
35129;DHT22;21301;43.626;10.580;2022-11-12T08:28:07;16.50;99.90
35129;DHT22;21301;43.626;10.580;2022-11-12T08:30:51;16.60;99.90
35129;DHT22;21301;43.626;10.580;2022-11-12T08:33:36;16.50;99.90
35129;DHT22;21301;43.626;10.580;2022-11-12T08:36:20;16.60;99.90
35129;DHT22;21301;43.626;10.580;2022-11-12T08:39:06;16.60;99.90
35129;DHT22;21301;43.626;10.580;2022-11-12T08:41:50;16.60;99.90
35129;DHT22;21301;43.626;10.580;2022-11-12T08:44:35;16.50;99.90
35129;DHT22;21301;43.626;10.580;2022-11-12T08:47:19;16.50;99.90
35129;DHT22;21301;43.626;10.580;2022-11-12T08:50:04;16.40;99.90
35129;DHT22;21301;43.626;10.580;2022-11-12T08:52:48;15.50;99.90
35129;DHT22;21301;43.626;10.580;2022-11-12T08:55:33;15.10;99.90
35129;DHT22;21301;43.626;10.580;2022-11-12T08:58:17;14.50;99.90
35129;DHT22;21301;43.626;10.580;2022-11-12T09:01:06;14.10;99.90
35129;DHT22;21301;43.626;10.580;2022-11-12T09:03:50;13.90;99.90
35129;DHT22;21301;43.626;10.580;2022-11-12T09:06:34;13.80;99.90
35129;DHT22;21301;43.626;10.580;2022-11-12T09:09:18;13.70;99.90
35129;DHT22;21301;43.626;10.580;2022-11-12T09:12:03;13.60;99.90
35129;DHT22;21301;43.626;10.580;2022-11-12T09:14:47;13.70;99.90
35129;DHT22;21301;43.626;10.580;2022-11-12T09:17:31;13.60;99.90
35129;DHT22;21301;43.626;10.580;2022-11-12T09:20:18;13.60;99.90
35129;DHT22;21301;43.626;10.580;2022-11-12T09:23:09;13.60;99.90
35129;DHT22;21301;43.626;10.580;2022-11-12T09:25:55;13.60;99.90
35129;DHT22;21301;43.626;10.580;2022-11-12T09:28:40;13.60;99.90
35129;DHT22;21301;43.626;10.580;2022-11-12T09:31:24;13.90;99.90
35129;DHT22;21301;43.626;10.580;2022-11-12T09:34:09;14.00;99.90
35129;DHT22;21301;43.626;10.580;2022-11-12T09:36:54;14.10;99.90
35129;DHT22;21301;43.626;10.580;2022-11-12T09:39:39;14.20;99.90
35129;DHT22;21301;43.626;10.580;2022-11-12T09:42:24;14.10;99.90
35129;DHT22;21301;43.626;10.580;2022-11-12T09:45:21;14.20;99.90
35129;DHT22;21301;43.626;10.580;2022-11-12T09:48:09;14.30;99.90
35129;DHT22;21301;43.626;10.580;2022-11-12T09:51:02;14.20;99.90
35129;DHT22;21301;43.626;10.580;2022-11-12T09:53:54;14.20;99.90
35129;DHT22;21301;43.626;10.580;2022-11-12T09:56:39;14.20;99.90
35129;DHT22;21301;43.626;10.580;2022-11-12T09:59:27;14.00;99.90
35129;DHT22;21301;43.626;10.580;2022-11-12T10:05:33;14.20;99.90
35129;DHT22;21301;43.626;10.580;2022-11-12T10:08:29;14.30;99.90
35129;DHT22;21301;43.626;10.580;2022-11-12T10:14:57;14.60;99.90
35129;DHT22;21301;43.626;10.580;2022-11-12T10:18:07;14.60;99.90
35129;DHT22;21301;43.626;10.580;2022-11-12T10:20:55;14.50;99.90
35129;DHT22;21301;43.626;10.580;2022-11-12T10:23:46;14.60;99.90
35129;DHT22;21301;43.626;10.580;2022-11-12T10:26:31;14.60;99.90
35129;DHT22;21301;43.626;10.580;2022-11-12T10:32:18;14.70;99.90
35129;DHT22;21301;43.626;10.580;2022-11-12T10:35:03;14.70;99.90
35129;DHT22;21301;43.626;10.580;2022-11-12T10:38:01;14.90;99.90
35129;DHT22;21301;43.626;10.580;2022-11-12T10:40:47;14.90;99.90
35129;DHT22;21301;43.626;10.580;2022-11-12T10:43:31;14.90;99.90
35129;DHT22;21301;43.626;10.580;2022-11-12T10:46:25;14.80;99.90
35129;DHT22;21301;43.626;10.580;2022-11-12T10:51:58;14.80;99.90
35129;DHT22;21301;43.626;10.580;2022-11-12T10:54:42;14.80;99.90
35129;DHT22;21301;43.626;10.580;2022-11-12T10:57:27;14.80;99.90
35129;DHT22;21301;43.626;10.580;2022-11-12T11:00:18;14.90;99.90
35129;DHT22;21301;43.626;10.580;2022-11-12T11:03:16;14.90;99.90
35129;DHT22;21301;43.626;10.580;2022-11-12T11:11:56;15.00;99.90
35129;DHT22;21301;43.626;10.580;2022-11-12T11:14:40;15.00;99.90
35129;DHT22;21301;43.626;10.580;2022-11-12T11:17:27;15.00;99.90
35129;DHT22;21301;43.626;10.580;2022-11-12T11:20:27;15.10;99.90
35129;DHT22;21301;43.626;10.580;2022-11-12T11:23:25;15.20;99.90
35129;DHT22;21301;43.626;10.580;2022-11-12T11:41:50;15.50;99.90
35129;DHT22;21301;43.626;10.580;2022-11-12T11:56:58;15.50;99.90
35129;DHT22;21301;43.626;10.580;2022-11-12T12:00:00;15.50;99.90
35129;DHT22;21301;43.626;10.580;2022-11-12T12:03:07;15.40;99.90
35129;DHT22;21301;43.626;10.580;2022-11-12T12:06:22;15.50;99.90
35129;DHT22;21301;43.626;10.580;2022-11-12T12:12:40;15.60;99.90
35129;DHT22;21301;43.626;10.580;2022-11-12T12:15:55;15.60;99.90
35129;DHT22;21301;43.626;10.580;2022-11-12T12:19:06;15.70;99.90
35129;DHT22;21301;43.626;10.580;2022-11-12T12:21:52;15.70;99.90
35129;DHT22;21301;43.626;10.580;2022-11-12T12:24:52;15.50;99.90
35129;DHT22;21301;43.626;10.580;2022-11-12T12:27:46;15.50;99.90
35129;DHT22;21301;43.626;10.580;2022-11-12T12:30:35;15.50;99.90
35129;DHT22;21301;43.626;10.580;2022-11-12T12:36:39;15.40;99.90
35129;DHT22;21301;43.626;10.580;2022-11-12T12:42:36;15.50;99.90
35129;DHT22;21301;43.626;10.580;2022-11-12T12:45:41;15.50;99.90
35129;DHT22;21301;43.626;10.580;2022-11-12T12:48:34;15.60;99.90
35129;DHT22;21301;43.626;10.580;2022-11-12T12:51:21;15.70;99.90
35129;DHT22;21301;43.626;10.580;2022-11-12T13:00:31;15.80;99.90
35129;DHT22;21301;43.626;10.580;2022-11-12T13:06:31;15.80;99.90
35129;DHT22;21301;43.626;10.580;2022-11-12T13:12:01;15.80;99.90
35129;DHT22;21301;43.626;10.580;2022-11-12T13:15:39;15.80;99.90
35129;DHT22;21301;43.626;10.580;2022-11-12T13:21:21;15.80;99.90
35129;DHT22;21301;43.626;10.580;2022-11-12T13:24:08;15.80;99.90
35129;DHT22;21301;43.626;10.580;2022-11-12T13:26:59;15.80;99.90
35129;DHT22;21301;43.626;10.580;2022-11-12T13:29:45;15.80;99.90
35129;DHT22;21301;43.626;10.580;2022-11-12T13:35:35;15.70;99.90
35129;DHT22;21301;43.626;10.580;2022-11-12T13:38:21;15.60;99.90
35129;DHT22;21301;43.626;10.580;2022-11-12T13:41:16;15.60;99.90
35129;DHT22;21301;43.626;10.580;2022-11-12T13:44:04;15.60;99.90
35129;DHT22;21301;43.626;10.580;2022-11-12T13:46:49;15.50;99.90
35129;DHT22;21301;43.626;10.580;2022-11-12T13:49:35;15.60;99.90
35129;DHT22;21301;43.626;10.580;2022-11-12T13:52:21;15.60;99.90
35129;DHT22;21301;43.626;10.580;2022-11-12T13:55:13;15.60;99.90
35129;DHT22;21301;43.626;10.580;2022-11-12T13:57:58;15.50;99.90
35129;DHT22;21301;43.626;10.580;2022-11-12T14:00:50;15.50;99.90
35129;DHT22;21301;43.626;10.580;2022-11-12T14:03:48;15.40;99.90
35129;DHT22;21301;43.626;10.580;2022-11-12T14:20:50;15.30;99.90
35129;DHT22;21301;43.626;10.580;2022-11-12T14:23:37;15.20;99.90
35129;DHT22;21301;43.626;10.580;2022-11-12T14:26:41;15.20;99.90
35129;DHT22;21301;43.626;10.580;2022-11-12T14:29:26;15.20;99.90
35129;DHT22;21301;43.626;10.580;2022-11-12T14:32:10;15.10;99.90
35129;DHT22;21301;43.626;10.580;2022-11-12T14:34:55;15.10;99.90
35129;DHT22;21301;43.626;10.580;2022-11-12T14:37:39;15.00;99.90
35129;DHT22;21301;43.626;10.580;2022-11-12T14:40:25;15.00;99.90
35129;DHT22;21301;43.626;10.580;2022-11-12T14:52:10;15.00;99.90
35129;DHT22;21301;43.626;10.580;2022-11-12T14:55:09;15.00;99.90
35129;DHT22;21301;43.626;10.580;2022-11-12T14:57:55;15.00;99.90
35129;DHT22;21301;43.626;10.580;2022-11-12T15:00:44;14.90;99.90
35129;DHT22;21301;43.626;10.580;2022-11-12T15:03:31;14.90;99.90
35129;DHT22;21301;43.626;10.580;2022-11-12T15:06:31;14.80;99.90
35129;DHT22;21301;43.626;10.580;2022-11-12T15:09:17;14.80;99.90
35129;DHT22;21301;43.626;10.580;2022-11-12T15:12:08;14.80;99.90
35129;DHT22;21301;43.626;10.580;2022-11-12T15:15:07;14.80;99.90
35129;DHT22;21301;43.626;10.580;2022-11-12T15:18:01;14.80;99.90
35129;DHT22;21301;43.626;10.580;2022-11-12T15:26:55;14.70;99.90
35129;DHT22;21301;43.626;10.580;2022-11-12T15:29:40;14.70;99.90
35129;DHT22;21301;43.626;10.580;2022-11-12T15:32:29;14.70;99.90
35129;DHT22;21301;43.626;10.580;2022-11-12T15:38:10;14.60;99.90
35129;DHT22;21301;43.626;10.580;2022-11-12T15:40:55;14.60;99.90
35129;DHT22;21301;43.626;10.580;2022-11-12T15:43:40;14.60;99.90
35129;DHT22;21301;43.626;10.580;2022-11-12T15:46:26;14.50;99.90
35129;DHT22;21301;43.626;10.580;2022-11-12T15:49:11;14.50;99.90
35129;DHT22;21301;43.626;10.580;2022-11-12T15:51:56;14.50;99.90
35129;DHT22;21301;43.626;10.580;2022-11-12T15:54:41;14.40;99.90
35129;DHT22;21301;43.626;10.580;2022-11-12T15:57:27;14.30;99.90
35129;DHT22;21301;43.626;10.580;2022-11-12T16:00:17;14.30;99.90
35129;DHT22;21301;43.626;10.580;2022-11-12T16:03:19;14.10;99.90
35129;DHT22;21301;43.626;10.580;2022-11-12T16:06:04;14.10;99.90
35129;DHT22;21301;43.626;10.580;2022-11-12T16:08:48;14.00;99.90
35129;DHT22;21301;43.626;10.580;2022-11-12T16:11:33;14.00;99.90
35129;DHT22;21301;43.626;10.580;2022-11-12T16:14:20;14.00;99.90
35129;DHT22;21301;43.626;10.580;2022-11-12T16:17:13;14.00;99.90
35129;DHT22;21301;43.626;10.580;2022-11-12T16:19:58;14.00;99.90
35129;DHT22;21301;43.626;10.580;2022-11-12T16:22:43;14.00;99.90
35129;DHT22;21301;43.626;10.580;2022-11-12T16:25:29;13.90;99.90
35129;DHT22;21301;43.626;10.580;2022-11-12T16:28:15;14.00;99.90
35129;DHT22;21301;43.626;10.580;2022-11-12T16:31:03;14.00;99.90
35129;DHT22;21301;43.626;10.580;2022-11-12T16:33:47;13.90;99.90
35129;DHT22;21301;43.626;10.580;2022-11-12T16:36:32;13.90;99.90
35129;DHT22;21301;43.626;10.580;2022-11-12T16:39:16;13.80;99.90
35129;DHT22;21301;43.626;10.580;2022-11-12T16:42:00;13.70;99.90
35129;DHT22;21301;43.626;10.580;2022-11-12T16:44:45;13.70;99.90
35129;DHT22;21301;43.626;10.580;2022-11-12T16:47:30;13.60;99.90
35129;DHT22;21301;43.626;10.580;2022-11-12T16:50:16;13.60;99.90
35129;DHT22;21301;43.626;10.580;2022-11-12T16:53:01;13.60;99.90
35129;DHT22;21301;43.626;10.580;2022-11-12T16:55:45;13.60;99.90
35129;DHT22;21301;43.626;10.580;2022-11-12T16:58:29;13.70;99.90
35129;DHT22;21301;43.626;10.580;2022-11-12T17:01:26;13.60;99.90
35129;DHT22;21301;43.626;10.580;2022-11-12T17:04:10;13.70;99.90
35129;DHT22;21301;43.626;10.580;2022-11-12T17:06:54;13.80;99.90
35129;DHT22;21301;43.626;10.580;2022-11-12T17:09:38;13.80;99.90
35129;DHT22;21301;43.626;10.580;2022-11-12T17:12:22;13.80;99.90
35129;DHT22;21301;43.626;10.580;2022-11-12T17:15:08;13.80;99.90
35129;DHT22;21301;43.626;10.580;2022-11-12T17:17:53;13.80;99.90
35129;DHT22;21301;43.626;10.580;2022-11-12T17:20:38;13.80;99.90
35129;DHT22;21301;43.626;10.580;2022-11-12T17:23:22;13.80;99.90
35129;DHT22;21301;43.626;10.580;2022-11-12T17:26:09;13.80;99.90
35129;DHT22;21301;43.626;10.580;2022-11-12T17:28:54;13.80;99.90
35129;DHT22;21301;43.626;10.580;2022-11-12T17:31:38;13.80;99.90
35129;DHT22;21301;43.626;10.580;2022-11-12T17:34:22;13.90;99.90
35129;DHT22;21301;43.626;10.580;2022-11-12T17:37:07;13.90;99.90
35129;DHT22;21301;43.626;10.580;2022-11-12T17:39:51;13.90;99.90
35129;DHT22;21301;43.626;10.580;2022-11-12T17:42:36;13.80;99.90
35129;DHT22;21301;43.626;10.580;2022-11-12T17:45:20;13.80;99.90
35129;DHT22;21301;43.626;10.580;2022-11-12T17:48:05;13.80;99.90
35129;DHT22;21301;43.626;10.580;2022-11-12T17:50:51;13.70;99.90
35129;DHT22;21301;43.626;10.580;2022-11-12T17:53:36;13.70;99.90
35129;DHT22;21301;43.626;10.580;2022-11-12T17:56:22;13.60;99.90
35129;DHT22;21301;43.626;10.580;2022-11-12T17:59:07;13.60;99.90
35129;DHT22;21301;43.626;10.580;2022-11-12T18:01:52;13.60;99.90
35129;DHT22;21301;43.626;10.580;2022-11-12T18:04:36;13.40;99.90
35129;DHT22;21301;43.626;10.580;2022-11-12T18:07:20;13.40;99.90
35129;DHT22;21301;43.626;10.580;2022-11-12T18:10:05;13.40;99.90
35129;DHT22;21301;43.626;10.580;2022-11-12T18:12:50;13.40;99.90
35129;DHT22;21301;43.626;10.580;2022-11-12T18:15:35;13.40;99.90
35129;DHT22;21301;43.626;10.580;2022-11-12T18:18:19;13.40;99.90
35129;DHT22;21301;43.626;10.580;2022-11-12T18:21:04;13.40;99.90
35129;DHT22;21301;43.626;10.580;2022-11-12T18:23:48;13.40;99.90
35129;DHT22;21301;43.626;10.580;2022-11-12T18:26:32;13.40;99.90
35129;DHT22;21301;43.626;10.580;2022-11-12T18:29:17;13.50;99.90
35129;DHT22;21301;43.626;10.580;2022-11-12T18:32:01;13.50;99.90
35129;DHT22;21301;43.626;10.580;2022-11-12T18:34:45;13.50;99.90
35129;DHT22;21301;43.626;10.580;2022-11-12T18:37:29;13.50;99.90
35129;DHT22;21301;43.626;10.580;2022-11-12T18:40:14;13.40;99.90
35129;DHT22;21301;43.626;10.580;2022-11-12T18:42:58;13.50;99.90
35129;DHT22;21301;43.626;10.580;2022-11-12T18:45:43;13.50;99.90
35129;DHT22;21301;43.626;10.580;2022-11-12T18:48:29;13.50;99.90
35129;DHT22;21301;43.626;10.580;2022-11-12T18:51:15;13.50;99.90
35129;DHT22;21301;43.626;10.580;2022-11-12T18:54:00;13.50;99.90
35129;DHT22;21301;43.626;10.580;2022-11-12T18:56:44;13.40;99.90
35129;DHT22;21301;43.626;10.580;2022-11-12T18:59:28;13.40;99.90
35129;DHT22;21301;43.626;10.580;2022-11-12T19:02:14;13.40;99.90
35129;DHT22;21301;43.626;10.580;2022-11-12T19:04:58;13.30;99.90
35129;DHT22;21301;43.626;10.580;2022-11-12T19:07:43;13.20;99.90
35129;DHT22;21301;43.626;10.580;2022-11-12T19:10:27;13.20;99.90
35129;DHT22;21301;43.626;10.580;2022-11-12T19:13:12;13.20;99.90